Bismarck Municipal Airport
KBIS : now visible

Airfield :











YOU CAN JOIN US ON...

 
LOGIN :

Register | Disclaimer

   EN    FR    IT 

 









Legend :    VFR   Marginal VFR   IFR   Intensive IFR   Very Intensive IFR
Visi :
Ceiling :
>= 8 km
>= 3000ft
5 to 8 km
1000 to 3000 ft
1500m to 5 km
500 to 1000 ft
800 to 1500m
200 to 500 ft
< 800m
< 200 ft
Symbols :   Thunderstorms  Fog  Heavy snow  Heavy precipitations  Wind > 20 kt






- Airport Elevation : 1661 ft
- IATA code : BIS


KBIS - Bismarck Municipal

CURRENT METAR :
  • 281952Z 29016G27KT 10SM SCT034 M02/M08 A2961 RMK AO2 PK WND 27032/1918 SLP047 T10171083

EXPIRED METARs :
  • 281852Z 27017G25KT 10SM CLR M02/M09 A2958 RMK AO2 PK WND 29031/1807 SLP038 T10171089

TAF KBIS
Valid from the 28 at 20:00 until the 29 at 18:00 UTC


282017Z 2820/2918 30016G25KT P6SM SCT035
FM290000 27011G19KT P6SM FEW035
FM290300 27010KT P6SM FEW050
FM291200 27015KT P6SM FEW050
KZMP FIR / North America



MET'MAP, your aeronautical weather chart ! - Copyright ORBIFLY December 2007 - Disclaimer

ORBIFLY MET'MAP TEAM :

Programming & Development : Alexandra Zaïnal
Original concept : Baudouin d'Aumeries
Technical & hardware support : Manuel Goepfert
Assistance : Marc-Olivier Méhu




SOURCES & CREDITS :

   NOAA       Earth
Advisory